createdAt,value
2018-11-22T12:18:00.652Z,87.10
2018-11-22T12:20:29.703Z,87.20
2018-11-22T12:22:59.366Z,86.80
2018-11-22T12:25:29.165Z,85.70
2018-11-22T12:28:00.416Z,84.60
2018-11-22T12:30:30.943Z,84.10
2018-11-22T12:34:03.037Z,84.50
2018-11-22T12:36:37.469Z,83.70
2018-11-22T12:39:10.735Z,83.10
2018-11-22T12:41:39.930Z,82.70
2018-11-22T12:44:09.077Z,83.00
2018-11-22T12:46:38.769Z,82.70
2018-11-22T12:49:07.882Z,82.50
2018-11-22T12:51:36.899Z,82.30
2018-11-22T12:54:05.946Z,82.10
2018-11-22T12:56:34.923Z,82.00
2018-11-22T12:59:03.981Z,82.00
2018-11-22T13:01:33.114Z,81.70
2018-11-22T13:04:02.403Z,81.30
2018-11-22T13:06:31.415Z,81.10
2018-11-22T13:09:00.507Z,80.50
2018-11-22T13:11:29.510Z,80.40
2018-11-22T13:13:58.575Z,80.30
2018-11-22T13:16:27.571Z,80.40
2018-11-22T13:18:59.383Z,79.80
2018-11-22T13:21:25.489Z,79.60
2018-11-22T13:23:54.519Z,79.70
2018-11-22T13:26:23.525Z,79.30
2018-11-22T13:28:52.541Z,78.80
2018-11-22T13:31:21.603Z,79.10
2018-11-22T13:33:50.636Z,79.00
2018-11-22T13:36:19.859Z,78.50
2018-11-22T13:38:48.927Z,78.50
2018-11-22T13:41:17.902Z,78.50
2018-11-22T13:43:46.902Z,78.70
2018-11-22T13:46:15.982Z,79.00
2018-11-22T13:48:44.992Z,79.10
2018-11-22T13:51:13.967Z,79.20
2018-11-22T13:53:42.963Z,79.50
2018-11-22T13:56:11.989Z,79.50
2018-11-22T13:58:41.084Z,79.40
2018-11-22T14:01:10.188Z,79.60
2018-11-22T14:03:39.156Z,79.90
2018-11-22T14:06:08.129Z,79.90
2018-11-22T14:08:37.137Z,80.30
2018-11-22T14:11:13.397Z,80.30
2018-11-22T14:13:35.476Z,80.50
2018-11-22T14:16:04.473Z,79.60
2018-11-22T14:18:33.439Z,80.30
2018-11-22T14:21:02.459Z,80.20
2018-11-22T14:23:31.524Z,80.50
2018-11-22T14:26:00.616Z,80.60
2018-11-22T14:28:29.687Z,80.60
2018-11-22T14:30:58.686Z,81.50
2018-11-22T14:33:27.735Z,81.20
2018-11-22T14:35:56.814Z,81.30
2018-11-22T14:38:25.852Z,81.50
2018-11-22T14:40:54.818Z,81.60
2018-11-22T14:43:23.777Z,81.60
2018-11-22T14:45:52.740Z,81.60
2018-11-22T14:48:21.831Z,81.80
2018-11-22T14:50:56.317Z,81.70
2018-11-22T14:53:25.310Z,81.60
2018-11-22T14:55:54.399Z,81.50
2018-11-22T14:58:23.581Z,81.60
2018-11-22T15:00:52.593Z,81.40
2018-11-22T15:03:21.681Z,81.50
2018-11-22T15:05:50.813Z,81.60
2018-11-22T15:08:19.876Z,81.60
2018-11-22T15:10:48.884Z,81.70
2018-11-22T15:13:17.898Z,81.70
2018-11-22T15:15:46.913Z,81.60
2018-11-22T15:18:15.953Z,81.60
2018-11-22T15:20:44.929Z,81.80
2018-11-22T15:23:13.908Z,81.70
2018-11-22T15:25:43.173Z,81.80
2018-11-22T15:28:12.194Z,81.80
2018-11-22T15:30:41.233Z,82.20
2018-11-22T15:33:10.264Z,82.00
2018-11-22T15:35:39.385Z,81.80
2018-11-22T15:38:08.480Z,81.80
2018-11-22T15:40:37.560Z,82.00
2018-11-22T15:43:06.657Z,81.90
2018-11-22T15:45:36.039Z,82.00
2018-11-22T15:48:05.114Z,81.90
2018-11-22T15:50:34.179Z,82.00
2018-11-22T15:53:03.183Z,82.00
2018-11-22T15:55:32.291Z,82.00
2018-11-22T15:58:01.749Z,82.20
2018-11-22T16:00:32.986Z,82.30
2018-11-22T16:03:02.615Z,82.50
2018-11-22T16:05:32.434Z,82.50
2018-11-22T16:08:01.733Z,82.50
2018-11-22T16:10:33.664Z,82.50
2018-11-22T16:13:05.221Z,82.80
2018-11-22T16:15:40.220Z,82.90
2018-11-22T16:18:09.438Z,82.70
2018-11-22T16:20:38.681Z,82.80
2018-11-22T16:23:07.755Z,82.80
2018-11-22T16:25:36.882Z,82.90
2018-11-22T16:28:06.315Z,83.00
2018-11-22T16:30:35.765Z,83.10
2018-11-22T16:33:04.935Z,83.20
2018-11-22T16:35:34.655Z,84.00
2018-11-22T16:38:03.745Z,83.50
2018-11-22T16:40:32.866Z,83.60
2018-11-22T16:43:03.015Z,83.90
2018-11-22T16:45:33.225Z,84.10
2018-11-22T16:48:03.775Z,84.10
2018-11-22T16:50:34.095Z,84.20
2018-11-22T16:53:03.121Z,85.20
2018-11-22T16:55:32.142Z,84.40
2018-11-22T16:58:02.195Z,84.80
2018-11-22T17:00:32.545Z,85.20
2018-11-22T17:03:04.037Z,85.20
2018-11-22T17:05:33.609Z,85.50
2018-11-22T17:08:03.701Z,85.50
2018-11-22T17:10:33.426Z,85.70
2018-11-22T17:13:03.527Z,85.80
2018-11-22T17:15:36.788Z,85.90
2018-11-22T17:18:06.848Z,85.70
2018-11-22T17:20:36.097Z,85.70
2018-11-22T17:23:06.030Z,85.80
2018-11-22T17:25:36.065Z,85.80
2018-11-22T17:28:06.756Z,85.80
2018-11-22T17:30:39.498Z,85.80
2018-11-22T17:33:08.525Z,85.80
2018-11-22T17:35:37.954Z,85.80
2018-11-22T17:38:08.303Z,85.80
2018-11-22T17:40:40.855Z,85.80
2018-11-22T17:43:09.867Z,85.70
2018-11-22T17:45:43.657Z,85.80
2018-11-22T17:48:12.681Z,85.80
2018-11-22T17:50:43.348Z,85.80
2018-11-22T17:53:13.232Z,86.10
2018-11-22T17:55:42.322Z,86.30
2018-11-22T17:58:11.847Z,86.30
2018-11-22T18:00:46.631Z,86.20
2018-11-22T18:03:15.821Z,86.40
2018-11-22T18:05:44.936Z,86.40
2018-11-22T18:08:14.050Z,86.40
2018-11-22T18:10:43.560Z,86.50
2018-11-22T18:13:12.596Z,86.60
2018-11-22T18:15:56.951Z,86.50
2018-11-22T18:18:26.872Z,86.70
2018-11-22T18:20:55.937Z,86.80
2018-11-22T18:23:24.975Z,86.80
2018-11-22T18:25:53.939Z,87.00
2018-11-22T18:28:22.991Z,87.10
2018-11-22T18:30:52.009Z,87.20
2018-11-22T18:33:21.125Z,87.50
2018-11-22T18:35:50.324Z,87.50
2018-11-22T18:38:19.359Z,87.50
2018-11-22T18:40:48.430Z,87.60
2018-11-22T18:43:17.537Z,87.70
2018-11-22T18:45:47.391Z,87.70
2018-11-22T18:48:17.705Z,88.30
2018-11-22T18:50:47.273Z,87.80
2018-11-22T18:53:16.359Z,87.80
2018-11-22T18:55:45.347Z,87.60
2018-11-22T18:58:14.528Z,87.50
2018-11-22T19:00:45.040Z,87.80
2018-11-22T19:03:15.868Z,87.90
2018-11-22T19:05:44.967Z,87.80
2018-11-22T19:08:14.284Z,87.80
2018-11-22T19:10:43.977Z,87.90
2018-11-22T19:13:13.704Z,88.70
2018-11-22T19:15:44.306Z,87.90
2018-11-22T19:18:14.044Z,88.00
2018-11-22T19:20:44.013Z,88.10
2018-11-22T19:23:13.555Z,88.90
2018-11-22T19:25:42.651Z,88.20
2018-11-22T19:28:11.799Z,88.20
2018-11-22T19:30:42.517Z,88.10
2018-11-22T19:33:12.975Z,88.20
2018-11-22T19:35:43.727Z,88.20
2018-11-22T19:38:12.806Z,88.20
2018-11-22T19:40:42.592Z,88.40
2018-11-22T19:43:12.039Z,88.30
2018-11-22T19:45:42.895Z,88.40
2018-11-22T19:48:11.940Z,88.50
2018-11-22T19:50:41.111Z,88.40
2018-11-22T19:53:11.761Z,88.50
2018-11-22T19:55:41.325Z,88.50
2018-11-22T19:58:12.010Z,88.40
2018-11-22T20:00:41.291Z,88.50
2018-11-22T20:03:10.723Z,88.80
2018-11-22T20:05:40.682Z,88.80
2018-11-22T20:08:11.455Z,88.90
2018-11-22T20:10:41.957Z,89.00
2018-11-22T20:13:11.094Z,89.10
2018-11-22T20:15:40.198Z,89.10
2018-11-22T20:18:10.399Z,89.20
2018-11-22T20:20:39.447Z,89.20
2018-11-22T20:23:08.478Z,89.10
2018-11-22T20:25:37.680Z,88.70
2018-11-22T20:28:06.835Z,88.60
2018-11-22T20:30:37.708Z,88.60
2018-11-22T20:33:06.843Z,88.50
2018-11-22T20:35:35.999Z,88.50
2018-11-22T20:38:05.345Z,88.60
2018-11-22T20:40:34.462Z,88.50
2018-11-22T20:43:03.649Z,88.40
2018-11-22T20:45:33.105Z,88.40
2018-11-22T20:48:03.783Z,88.60
2018-11-22T20:50:33.544Z,88.60
2018-11-22T20:53:02.558Z,88.50
2018-11-22T20:55:34.159Z,88.60
2018-11-22T20:58:04.422Z,89.00
2018-11-22T21:00:35.093Z,88.50
2018-11-22T21:03:04.375Z,88.60
2018-11-22T21:05:33.516Z,88.50
2018-11-22T21:08:02.656Z,88.50
2018-11-22T21:10:32.657Z,88.50
2018-11-22T21:13:01.774Z,88.40
2018-11-22T21:15:32.308Z,87.50
2018-11-22T21:18:04.452Z,87.80
2018-11-22T21:20:35.805Z,87.80
2018-11-22T21:23:05.071Z,87.80
2018-11-22T21:25:34.107Z,87.80
2018-11-22T21:28:03.287Z,87.80
2018-11-22T21:30:35.064Z,88.00
2018-11-22T21:33:04.436Z,88.10
2018-11-22T21:35:33.844Z,88.20
2018-11-22T21:38:03.954Z,88.30
2018-11-22T21:40:33.654Z,88.40
2018-11-22T21:43:02.779Z,88.50
2018-11-22T21:45:32.710Z,88.50
2018-11-22T21:48:01.692Z,88.60
2018-11-22T21:50:30.737Z,88.80
2018-11-22T21:53:00.828Z,88.90
2018-11-22T21:55:30.452Z,89.70
2018-11-22T21:58:00.751Z,89.00
2018-11-22T22:00:33.608Z,89.00
2018-11-22T22:03:05.037Z,89.30
2018-11-22T22:05:34.177Z,89.30
2018-11-22T22:08:03.367Z,89.30
2018-11-22T22:10:32.539Z,89.30
2018-11-22T22:13:01.782Z,89.40
2018-11-22T22:15:32.064Z,89.50
2018-11-22T22:18:01.369Z,89.60
2018-11-22T22:20:31.967Z,88.90
2018-11-22T22:23:01.045Z,89.30
2018-11-22T22:25:30.141Z,89.60
2018-11-22T22:27:59.911Z,89.70
2018-11-22T22:30:30.684Z,89.90
2018-11-22T22:33:01.356Z,89.90
2018-11-22T22:35:30.470Z,90.30
2018-11-22T22:37:59.546Z,90.00
2018-11-22T22:40:29.656Z,90.00
2018-11-22T22:42:59.318Z,90.00
2018-11-22T22:45:29.547Z,89.80
2018-11-22T22:47:58.603Z,90.00
2018-11-22T22:50:28.775Z,90.00
2018-11-22T22:52:59.131Z,90.00
2018-11-22T22:55:28.719Z,90.10
2018-11-22T22:57:57.777Z,90.10
2018-11-22T23:00:32.680Z,90.10
2018-11-22T23:03:03.384Z,90.10
2018-11-22T23:05:33.012Z,90.10
2018-11-22T23:08:02.067Z,90.20
2018-11-22T23:10:31.223Z,90.20
2018-11-22T23:13:00.865Z,90.20
2018-11-22T23:15:31.111Z,90.20
2018-11-22T23:18:00.164Z,90.20
2018-11-22T23:20:31.764Z,90.20
2018-11-22T23:23:00.727Z,90.30
2018-11-22T23:25:30.385Z,90.30
2018-11-22T23:27:59.348Z,90.30
2018-11-22T23:30:29.758Z,90.20
2018-11-22T23:33:05.280Z,90.30
2018-11-22T23:35:34.294Z,90.30
2018-11-22T23:38:03.352Z,90.30
2018-11-22T23:40:33.255Z,90.30
2018-11-22T23:43:02.306Z,90.40
2018-11-22T23:45:32.143Z,90.40
2018-11-22T23:48:01.277Z,90.40
2018-11-22T23:50:31.383Z,90.40
2018-11-22T23:53:01.403Z,90.40
2018-11-22T23:55:30.468Z,90.50
2018-11-22T23:57:59.508Z,90.40
